地図

経路データ

SID SEASON NUMBER BASIN SUBBASIN NAME ISO_TIME NATURE LAT LON WMO_WIND WMO_PRES WMO_AGENCY TRACK_TYPE DIST2LAND LANDFALL IFLAG USA_AGENCY USA_ATCF_ID USA_LAT USA_LON USA_RECORD USA_STATUS USA_WIND USA_PRES USA_SSHS USA_R34_NE USA_R34_SE USA_R34_SW USA_R34_NW USA_R50_NE USA_R50_SE USA_R50_SW USA_R50_NW USA_R64_NE USA_R64_SE USA_R64_SW USA_R64_NW USA_POCI USA_ROCI USA_RMW USA_EYE TOKYO_LAT TOKYO_LON TOKYO_GRADE TOKYO_WIND TOKYO_PRES TOKYO_R50_DIR TOKYO_R50_LONG TOKYO_R50_SHORT TOKYO_R30_DIR TOKYO_R30_LONG TOKYO_R30_SHORT TOKYO_LAND CMA_LAT CMA_LON CMA_CAT CMA_WIND CMA_PRES HKO_LAT HKO_LON HKO_CAT HKO_WIND HKO_PRES NEWDELHI_LAT NEWDELHI_LON NEWDELHI_GRADE NEWDELHI_WIND NEWDELHI_PRES NEWDELHI_CI NEWDELHI_DP NEWDELHI_POCI REUNION_LAT REUNION_LON REUNION_TYPE REUNION_WIND REUNION_PRES REUNION_TNUM REUNION_CI REUNION_RMW REUNION_R34_NE REUNION_R34_SE REUNION_R34_SW REUNION_R34_NW REUNION_R50_NE REUNION_R50_SE REUNION_R50_SW REUNION_R50_NW REUNION_R64_NE REUNION_R64_SE REUNION_R64_SW REUNION_R64_NW BOM_LAT BOM_LON BOM_TYPE BOM_WIND BOM_PRES BOM_TNUM BOM_CI BOM_RMW BOM_R34_NE BOM_R34_SE BOM_R34_SW BOM_R34_NW BOM_R50_NE BOM_R50_SE BOM_R50_SW BOM_R50_NW BOM_R64_NE BOM_R64_SE BOM_R64_SW BOM_R64_NW BOM_ROCI BOM_POCI BOM_EYE BOM_POS_METHOD BOM_PRES_METHOD NADI_LAT NADI_LON NADI_CAT NADI_WIND NADI_PRES WELLINGTON_LAT WELLINGTON_LON WELLINGTON_WIND WELLINGTON_PRES DS824_LAT DS824_LON DS824_STAGE DS824_WIND DS824_PRES TD9636_LAT TD9636_LON TD9636_STAGE TD9636_WIND TD9636_PRES TD9635_LAT TD9635_LON TD9635_WIND TD9635_PRES TD9635_ROCI NEUMANN_LAT NEUMANN_LON NEUMANN_CLASS NEUMANN_WIND NEUMANN_PRES MLC_LAT MLC_LON MLC_CLASS MLC_WIND MLC_PRES USA_GUST BOM_GUST BOM_GUST_PER REUNION_GUST REUNION_GUST_PER USA_SEAHGT USA_SEARAD_NE USA_SEARAD_SE USA_SEARAD_SW USA_SEARAD_NW STORM_SPEED STORM_DIR
1859297N20267 1859 26 NA GM NOT_NAMED 1859-10-23 12:00:00 TS 20.0000 -93.5000 main 177 177 _____________O -1 20.0000 -93.5000 TD 30 1 43
1859297N20267 1859 26 NA GM NOT_NAMED 1859-10-23 15:00:00 TS 20.0500 -93.4525 main 187 177 _____________P -1 20.0500 -93.4525 TD 30 1 43
1859297N20267 1859 26 NA GM NOT_NAMED 1859-10-23 18:00:00 TS 20.1000 -93.4000 main 183 179 _____________O -1 20.1000 -93.4000 TD 30 1 45
1859297N20267 1859 26 NA GM NOT_NAMED 1859-10-23 21:00:00 TS 20.1500 -93.3425 main 189 189 _____________P -1 20.1500 -93.3425 TD 32 1 43
1859297N20267 1859 26 NA GM NOT_NAMED 1859-10-24 00:00:00 TS 20.2000 -93.3000 40 hurdat_atl main 189 189 O____________O hurdat_atl AL081859 20.2000 -93.3000 TS 40 0 20.2000 -93.3000 TS 35 1 25
1859297N20267 1859 26 NA GM NOT_NAMED 1859-10-24 03:00:00 TS 20.2513 -93.2950 main 200 200 P____________P AL081859 20.2525 -93.2975 TS 40 0 20.2500 -93.2925 TS 35 1 0
1859297N20267 1859 26 NA GM NOT_NAMED 1859-10-24 06:00:00 TS 20.3000 -93.3000 40 hurdat_atl main 200 200 O____________O hurdat_atl AL081859 20.3000 -93.3000 TS 40 0 20.3000 -93.3000 TS 35 1 0
1859297N20267 1859 26 NA GM NOT_NAMED 1859-10-24 09:00:00 TS 20.3425 -93.3075 main 200 200 P____________P AL081859 20.3425 -93.3075 TS 40 0 20.3425 -93.3075 TS 37 1 0
1859297N20267 1859 26 NA GM NOT_NAMED 1859-10-24 12:00:00 TS 20.4000 -93.3000 40 hurdat_atl main 210 210 O____________O hurdat_atl AL081859 20.4000 -93.3000 TS 40 0 20.4000 -93.3000 TS 40 2 20
1859297N20267 1859 26 NA GM NOT_NAMED 1859-10-24 15:00:00 TS 20.5000 -93.2500 main 221 218 P____________P AL081859 20.5000 -93.2500 TS 40 0 20.5000 -93.2500 TS 40 2 27
1859297N20267 1859 26 NA GM NOT_NAMED 1859-10-24 18:00:00 TS 20.6000 -93.2000 40 hurdat_atl main 229 229 O____________O hurdat_atl AL081859 20.6000 -93.2000 TS 40 0 20.6000 -93.2000 TS 40 2 20
1859297N20267 1859 26 NA GM NOT_NAMED 1859-10-24 21:00:00 TS 20.6575 -93.1925 main 240 240 P____________P AL081859 20.6575 -93.1925 TS 40 0 20.6575 -93.1925 TS 42 1 0
1859297N20267 1859 26 NA GM NOT_NAMED 1859-10-25 00:00:00 TS 20.7000 -93.2000 40 hurdat_atl main 240 240 O____________O hurdat_atl AL081859 20.7000 -93.2000 TS 40 0 20.7000 -93.2000 TS 45 1 344
1859297N20267 1859 26 NA GM NOT_NAMED 1859-10-25 03:00:00 TS 20.7425 -93.2075 main 240 240 P____________P AL081859 20.7425 -93.2075 TS 45 0 20.7425 -93.2075 TS 45 1 0
1859297N20267 1859 26 NA GM NOT_NAMED 1859-10-25 06:00:00 TS 20.8000 -93.2000 50 hurdat_atl main 251 251 O____________O hurdat_atl AL081859 20.8000 -93.2000 TS 50 0 20.8000 -93.2000 TS 45 2 12
1859297N20267 1859 26 NA GM NOT_NAMED 1859-10-25 09:00:00 TS 20.8925 -93.1575 main 262 260 P____________P AL081859 20.8925 -93.1575 TS 50 0 20.8925 -93.1575 TS 47 2 27
1859297N20267 1859 26 NA GM NOT_NAMED 1859-10-25 12:00:00 TS 21.0000 -93.1000 50 hurdat_atl main 271 271 O____________O hurdat_atl AL081859 21.0000 -93.1000 TS 50 0 21.0000 -93.1000 TS 50 2 26
1859297N20267 1859 26 NA GM NOT_NAMED 1859-10-25 15:00:00 TS 21.1000 -93.0500 main 268 268 P____________P AL081859 21.1000 -93.0500 TS 50 0 21.1000 -93.0500 TS 52 2 27
1859297N20267 1859 26 NA GM NOT_NAMED 1859-10-25 18:00:00 TS 21.2000 -93.0000 50 hurdat_atl main 271 271 O____________O hurdat_atl AL081859 21.2000 -93.0000 TS 50 0 21.2000 -93.0000 TS 55 2 27
1859297N20267 1859 26 NA GM NOT_NAMED 1859-10-25 21:00:00 TS 21.3000 -92.9500 main 264 264 P____________P AL081859 21.3000 -92.9500 TS 55 0 21.3000 -92.9500 TS 57 2 27
1859297N20267 1859 26 NA GM NOT_NAMED 1859-10-26 00:00:00 TS 21.4000 -92.9000 60 hurdat_atl main 267 267 O____________O hurdat_atl AL081859 21.4000 -92.9000 TS 60 0 21.4000 -92.9000 TS 60 2 25
1859297N20267 1859 26 NA GM NOT_NAMED 1859-10-26 03:00:00 TS 21.5000 -92.8575 main 270 260 P____________P AL081859 21.5000 -92.8575 TS 60 0 21.5000 -92.8575 TS 60 2 27
1859297N20267 1859 26 NA GM NOT_NAMED 1859-10-26 06:00:00 TS 21.6000 -92.8000 60 hurdat_atl main 264 257 O____________O hurdat_atl AL081859 21.6000 -92.8000 TS 60 0 21.6000 -92.8000 TS 60 2 37
1859297N20267 1859 26 NA GM NOT_NAMED 1859-10-26 09:00:00 TS 21.7000 -92.7000 main 257 250 P____________P AL081859 21.7000 -92.7000 TS 65 1 21.7000 -92.7000 TS 67 3 43
1859297N20267 1859 26 NA GM NOT_NAMED 1859-10-26 12:00:00 TS 21.8000 -92.6000 70 hurdat_atl main 250 250 O____________O hurdat_atl AL081859 21.8000 -92.6000 HU 70 1 21.8000 -92.6000 HU 75 2 33
1859297N20267 1859 26 NA GM NOT_NAMED 1859-10-26 15:00:00 TS 21.8924 -92.5649 main 254 244 P____________P AL081859 21.8924 -92.5649 HU 75 1 21.8924 -92.5649 HU 77 2 27
1859297N20267 1859 26 NA GM NOT_NAMED 1859-10-26 18:00:00 TS 22.0000 -92.5000 80 hurdat_atl main 248 235 O____________O hurdat_atl AL081859 22.0000 -92.5000 HU 80 1 22.0000 -92.5000 HU 80 3 41
1859297N20267 1859 26 NA GM NOT_NAMED 1859-10-26 21:00:00 TS 22.1500 -92.3226 main 240 229 P____________P AL081859 22.1500 -92.3226 HU 80 1 22.1500 -92.3226 HU 82 5 51
1859297N20267 1859 26 NA GM NOT_NAMED 1859-10-27 00:00:00 TS 22.3000 -92.1000 80 hurdat_atl main 229 220 O____________O hurdat_atl AL081859 22.3000 -92.1000 HU 80 1 22.3000 -92.1000 HU 85 4 59
1859297N20267 1859 26 NA GM NOT_NAMED 1859-10-27 03:00:00 TS 22.3774 -91.9222 main 220 212 P____________P AL081859 22.3774 -91.9222 HU 80 1 22.3774 -91.9222 HU 85 4 62
1859297N20267 1859 26 NA GM NOT_NAMED 1859-10-27 06:00:00 TS 22.5000 -91.7000 80 hurdat_atl main 213 206 O____________O hurdat_atl AL081859 22.5000 -91.7000 HU 80 1 22.5000 -91.7000 HU 85 6 52
1859297N20267 1859 26 NA GM NOT_NAMED 1859-10-27 09:00:00 TS 22.7549 -91.3948 main 221 216 P____________P AL081859 22.7549 -91.3948 HU 80 1 22.7549 -91.3948 HU 85 9 47
1859297N20267 1859 26 NA GM NOT_NAMED 1859-10-27 12:00:00 TS 23.1000 -91.0000 80 hurdat_atl main 234 234 O____________O hurdat_atl AL081859 23.1000 -91.0000 HU 80 1 23.1000 -91.0000 HU 85 11 47
1859297N20267 1859 26 NA GM NOT_NAMED 1859-10-27 15:00:00 TS 23.4773 -90.5447 main 264 264 P____________P AL081859 23.4773 -90.5447 HU 80 1 23.4773 -90.5447 HU 85 12 49
1859297N20267 1859 26 NA GM NOT_NAMED 1859-10-27 18:00:00 TS 23.9000 -90.0000 80 hurdat_atl main 299 297 O____________O hurdat_atl AL081859 23.9000 -90.0000 HU 80 1 23.9000 -90.0000 HU 85 14 51
1859297N20267 1859 26 NA GM NOT_NAMED 1859-10-27 21:00:00 TS 24.3422 -89.3946 main 323 323 P____________P AL081859 24.3422 -89.3946 HU 80 1 24.3422 -89.3946 HU 85 15 53
1859297N20267 1859 26 NA GM NOT_NAMED 1859-10-28 00:00:00 TS 24.8000 -88.7000 80 hurdat_atl main 369 368 O____________O hurdat_atl AL081859 24.8000 -88.7000 HU 80 1 24.8000 -88.7000 HU 85 16 55
1859297N20267 1859 26 NA GM NOT_NAMED 1859-10-28 03:00:00 TS 25.2417 -87.9590 main 413 413 P____________P AL081859 25.2417 -87.9590 HU 80 1 25.2417 -87.9590 HU 85 17 58
1859297N20267 1859 26 NA GM NOT_NAMED 1859-10-28 06:00:00 TS 25.7000 -87.1000 80 hurdat_atl main 417 377 O____________O hurdat_atl AL081859 25.7000 -87.1000 HU 80 1 25.7000 -87.1000 HU 85 19 60
1859297N20267 1859 26 NA GM NOT_NAMED 1859-10-28 09:00:00 TS 26.1923 -86.0946 main 368 255 P____________P AL081859 26.1923 -86.0946 HU 80 1 26.1923 -86.0946 HU 85 21 62
1859297N20267 1859 26 NA GM NOT_NAMED 1859-10-28 12:00:00 TS 26.7000 -85.0000 80 hurdat_atl main 246 148 O____________O hurdat_atl AL081859 26.7000 -85.0000 HU 80 1 26.7000 -85.0000 HU 85 21 63
1859297N20267 1859 26 NA GM NOT_NAMED 1859-10-28 15:00:00 TS 27.1589 -84.0082 main 133 14 P____________P AL081859 27.1589 -84.0082 HU 80 1 27.1589 -84.0082 HU 85 22 63
1859297N20267 1859 26 NA GM NOT_NAMED 1859-10-28 18:00:00 TS 27.7000 -82.8000 80 hurdat_atl main 9 0 O____________O hurdat_atl AL081859 27.7000 -82.8000 L HU 80 1 27.7000 -82.8000 HU 85 28 63
1859297N20267 1859 26 NA NA NOT_NAMED 1859-10-28 21:00:00 TS 28.4426 -81.1365 main 0 0 P____________P AL081859 28.4426 -81.1365 HU 75 1 28.4426 -81.1365 HU 75 35 65
1859297N20267 1859 26 NA NA NOT_NAMED 1859-10-29 00:00:00 TS 29.2000 -79.2000 70 989 hurdat_atl main 148 148 O____________O hurdat_atl AL081859 29.2000 -79.2000 HU 70 989 1 29.2000 -79.2000 HU 65 989 36 69
1859297N20267 1859 26 NA NA NOT_NAMED 1859-10-29 03:00:00 TS 29.7510 -77.3201 main 342 342 P____________P AL081859 29.7510 -77.3201 HU 65 1 29.7510 -77.3201 HU 62 36 72
1859297N20267 1859 26 NA NA NOT_NAMED 1859-10-29 06:00:00 MX 30.3000 -75.2000 60 hurdat_atl main 480 480 O____________O hurdat_atl AL081859 30.3000 -75.2000 EX 60 -4 30.3000 -75.2000 TS 60 42 72
1859297N20267 1859 26 NA NA NOT_NAMED 1859-10-29 09:00:00 MX 31.0023 -72.7291 main 543 543 P____________P AL081859 31.0023 -72.7291 EX 55 -4 31.0023 -72.7291 TS 57 48 73
1859297N20267 1859 26 NA NA NOT_NAMED 1859-10-29 12:00:00 ET 31.7000 -69.9000 50 hurdat_atl main 689 689 O____________O hurdat_atl AL081859 31.7000 -69.9000 EX 50 -4 31.7000 -69.9000 EX 55 52 76
1859297N20267 1859 26 NA NA NOT_NAMED 1859-10-29 15:00:00 ET 32.2652 -66.7829 main 889 889 P____________P AL081859 32.2652 -66.7829 EX 45 -4 32.2652 -66.7829 EX 50 55 80
1859297N20267 1859 26 NA NA NOT_NAMED 1859-10-29 18:00:00 ET 32.7000 -63.5000 40 hurdat_atl main 1152 O____________O hurdat_atl AL081859 32.7000 -63.5000 EX 40 -4 32.7000 -63.5000 EX 45 56 81

IBTrACS Databaseについて

本データベースは、米国NOAAが公開する1842年以降の世界の熱帯低気圧のベストトラックデータアーカイブInternational Best Track Archive for Climate Stewardship (IBTrACS)を、ウェブで閲覧しやすい形式に変換したものです。

最終更新日:2021-10-25